ADDS METAR Data INFO
IDs: Format: Raw Decoded Include TAF

Data at: 2334 UTC 25 Feb 2018

K5SM 252311Z AUTO 23008KT 200V290 10SM CLR M11/M15 RMK AO2
K5SM 252254Z AUTO 23010G17KT 200V270 10SM CLR M11/M14 A3001 RMK AO2
K5SM 252230Z AUTO 22009G18KT 200V270 10SM CLR M11/M15 A3000 RMK AO2
K5SM 252212Z AUTO 23012G19KT 10SM CLR M11/M15 A3000 RMK AO2
K5SM 252154Z AUTO 24010G21KT 210V300 7SM CLR M11/M15 A3001 RMK AO2
K5SM 252130Z AUTO 22010G20KT 170V260 5SM HZ SCT001 SCT018 SCT022 M11/M15 A2999 RMK AO2
K5SM 252112Z AUTO 24008G18KT 170V300 5SM HZ SCT016 M12/M15 A2995 RMK AO2
K5SM 252054Z AUTO 23008G24KT 5SM HZ SCT009 SCT016 M11/M13 RMK AO2
K5SM 252030Z AUTO 24006G19KT 200V310 3SM BR BKN007 M12/M14 A3000 RMK AO2
K5SM 252012Z AUTO 23007G17KT 190V280 1 1/2SM -SN SCT001 BKN007 OVC012 M11/M14 A3000 RMK AO2
K5SM 251954Z AUTO 24008G18KT 200V320 3SM HZ SCT009 SCT013 SCT026 M12/M15 A3000 RMK AO2
K5SM 251930Z AUTO 23005G16KT 5SM HZ BKN009 BKN015 M12/M15 A3000 RMK AO2
K5SM 251912Z AUTO 24006G17KT 210V310 7SM BKN009 BKN015 M12/M15 RMK AO2
K5SM 251853Z AUTO 24007G15KT 220V290 7SM BKN007 BKN015 M13/M16 A2997 RMK AO2
K5SM 251830Z AUTO 25008G17KT 210V310 10SM SCT007 BKN012 BKN018 M14/M16 A2998 RMK AO2
K5SM 251812Z AUTO 25008G16KT 190V300 10SM SCT007 BKN012 BKN016 M13/M16 RMK AO2
K5SM 251754Z AUTO 23005G19KT 7SM -SN SCT007 BKN010 BKN013 M14/M16 A2993 RMK AO2
K5SM 251730Z AUTO 23006G18KT 180V290 7SM SCT007 SCT010 BKN017 M14/M16 A2996 RMK AO2
K5SM 251712Z AUTO 24009G17KT 180V280 7SM SCT005 SCT011 M15/M17 A2995 RMK AO2
K5SM 251652Z AUTO 25011G22KT 220V290 5SM BR BKN005 BKN009 M15/M17 A2994 RMK AO2
K5SM 251634Z AUTO 25009G18KT 210V350 5SM BR BKN003 OVC008 M16/M18 A2993 RMK AO2
K5SM 251611Z AUTO 24010G20KT 3SM BR BKN003 OVC007 M16/M18 A2993 RMK AO2
K5SM 251554Z AUTO 24008G17KT 220V310 1 3/4SM -SN OVC001 M16/M18 A2993 RMK AO2
K5SM 251530Z AUTO 24007G14KT 1 3/4SM -SN OVC001 M16/M18 A2991 RMK AO2
K5SM 251512Z AUTO 25009G15KT 220V280 1SM -SN OVC001 M16/M18 A2990 RMK AO2
K5SM 251454Z AUTO 25006KT 3/4SM -SN OVC001 M16/M18 A2989 RMK AO2
K5SM 251430Z AUTO 24006G18KT 190V290 1SM -SN OVC001 M16/M18 A2986 RMK AO2
K5SM 251412Z AUTO 25009G18KT 210V270 2 1/2SM -SN OVC001 M16/M18 A2985 RMK AO2
K5SM 251353Z AUTO 24007G20KT 4SM -SN OVC001 M16/M18 A2984 RMK AO2
K5SM 251335Z AUTO 23008G16KT 160V290 1 3/4SM -SN OVC001 M16/M18 A2983 RMK AO2
K5SM 251329Z AUTO 24009G21KT 220V290 1 1/2SM -SN OVC001 M16/M18 A2983 RMK AO2
K5SM 251311Z AUTO 24009G19KT 200V290 3/4SM SN OVC001 M16/M18 A2983 RMK AO2
K5SM 251254Z AUTO 25007KT 1/2SM SN OVC001 M16/M18 A2982 RMK AO2
K5SM 251230Z AUTO 24006KT 3/4SM SN OVC003 M16/M18 A2982 RMK AO2
K5SM 251212Z AUTO 24007KT 1/2SM SN OVC003 M16/M18 A2982 RMK AO2
K5SM 251154Z AUTO 23006KT 200V280 1SM SN OVC001 M16/M18 A2981 RMK AO2
K5SM 251130Z AUTO 23008KT 1SM -SN OVC003 M16/M18 A2980 RMK AO2
K5SM 251112Z AUTO 24006G15KT 220V290 1 1/4SM -SN OVC003 M16/M18 A2980 RMK AO2
K5SM 251054Z AUTO 23008G17KT 190V300 1 1/2SM -SN OVC003 M16/M18 A2978 RMK AO2
K5SM 251030Z AUTO 24007G16KT 210V270 2SM -SN OVC003 M16/M18 A2980 RMK AO2
K5SM 251012Z AUTO 23007G18KT 220V310 3SM -SN BKN003 OVC010 M16/M18 A2980 RMK AO2
K5SM 250954Z AUTO 23007KT 5SM -SN BKN003 OVC008 M16/M18 A2979 RMK AO2
K5SM 250930Z AUTO 23009G15KT 060V260 1 1/4SM -SN OVC001 M16/M18 A2980 RMK AO2
K5SM 250912Z AUTO 23008G20KT 160V270 3/4SM SN OVC001 M16/M18 A2980 RMK AO2
K5SM 250853Z AUTO 23006G14KT 180V280 1SM -SN OVC003 M16/M18 A2980 RMK AO2
K5SM 250829Z AUTO 23008G17KT 1 1/2SM -SN BKN001 OVC007 M16/M18 A2980 RMK AO2
K5SM 250812Z AUTO 23009G14KT 220V280 1 1/4SM -SN BKN001 OVC006 M16/M18 A2980 RMK AO2
K5SM 250754Z AUTO 23005KT 3/4SM SN OVC001 M16/M18 A2980 RMK AO2
K5SM 250730Z AUTO 23005KT 4SM -SN OVC001 M16/M18 A2980 RMK AO2
K5SM 250712Z AUTO 24008KT 210V270 2 1/2SM -SN OVC003 M16/M17 A2980 RMK AO2
K5SM 250654Z AUTO 24007KT 2SM -SN OVC003 M16/M17 A2980 RMK AO2
K5SM 250630Z AUTO 23009G14KT 1 1/4SM -SN OVC003 M16/M18 A2980 RMK AO2
K5SM 250612Z AUTO 23009G18KT 200V260 1SM -SN OVC003 M16/M17 A2980 RMK AO2
K5SM 250552Z AUTO 23008G14KT 200V270 1/2SM SN OVC001 M16/M18 A2981 RMK AO2
K5SM 250535Z AUTO 23007KT 3/4SM SN OVC001 M16/M18 A2982 RMK AO2
K5SM 250529Z AUTO 24006KT 1SM SN OVC001 M16/M18 A2982 RMK AO2
K5SM 250512Z AUTO 23008G14KT 180V240 1SM SN OVC001 M16/M18 A2982 RMK AO2
K5SM 250454Z AUTO 22010G19KT 1 1/4SM -SN BKN001 BKN006 OVC011 M16/M18 A2980 RMK AO2
K5SM 250430Z AUTO 23009G14KT 220V290 1 1/2SM -SN BKN001 OVC008 M16/M18 A2981 RMK AO2
K5SM 250412Z AUTO 22010G17KT 1SM -SN OVC001 M16/M18 A2980 RMK AO2
K5SM 250354Z AUTO 23010G20KT 3/4SM -SN OVC001 M16/M18 A2980 RMK AO2
K5SM 250330Z AUTO 23013G23KT 1SM -SN OVC003 M16/M18 A2978 RMK AO2
K5SM 250312Z AUTO 23014G22KT 3/4SM SN BKN001 OVC009 M16/M18 A2978 RMK AO2
K5SM 250254Z AUTO 22014G22KT 1SM -SN OVC001 M16/M18 A2978 RMK AO2
K5SM 250230Z AUTO 22012G21KT 1 1/4SM -SN OVC001 M16/M18 A2978 RMK AO2
K5SM 250212Z AUTO 22012G21KT 2SM -SN BKN001 OVC008 M16/M18 A2978 RMK AO2
K5SM 250154Z AUTO 22014G22KT 3SM -SN SCT003 SCT008 M16/M18 A2977 RMK AO2
K5SM 250130Z AUTO 22015G26KT 4SM BR CLR M16/M18 A2977 RMK AO2
K5SM 250112Z AUTO 23014G22KT 3SM -SN SCT001 SCT008 M16/M18 A2976 RMK AO2
K5SM 250054Z AUTO 23012G20KT 190V250 1SM -SN BKN001 OVC008 M16/M18 A2975 RMK AO2
K5SM 250030Z AUTO 23011G20KT 4SM HZ SCT008 M16/M18 A2975 RMK AO2
K5SM 250012Z AUTO 23011G19KT 5SM BR SCT001 BKN008 M16/M18 A2976 RMK AO2
K5SM 242354Z AUTO 23010G17KT 180V300 1 1/4SM BR OVC001 M16/M18 A2975 RMK AO2
K5SM 242330Z AUTO 23010G18KT 190V260 1 1/2SM BR BKN001 OVC009 M15/M17 A2974 RMK AO2
K5SM 242312Z AUTO 23008KT 5SM BR SCT001 SCT009 SCT012 M15/M17 A2977 RMK AO2
K5SM 242254Z AUTO 23007G15KT 210V280 7SM SCT016 SCT025 M14/M17 RMK AO2
K5SM 242230Z AUTO 22010G20KT 160V240 10SM SCT014 M13/M16 A2979 RMK AO2
K5SM 242212Z AUTO 24007G17KT 130V280 5SM BR SCT001 SCT009 BKN014 M14/M16 A2979 RMK AO2
K5SM 242154Z AUTO 24011G21KT 220V280 4SM BR SCT001 BKN011 OVC016 M14/M16 A2979 RMK AO2
K5SM 242130Z AUTO 23009G20KT 210V280 4SM BR SCT001 SCT012 SCT017 M14/M16 A2978 RMK AO2
K5SM 242112Z AUTO 23010G20KT 3SM BR SCT001 SCT010 SCT017 M14/M16 A2980 RMK AO2
K5SM 242053Z AUTO 24011G22KT 190V280 2SM BR SCT001 SCT017 M14/M16 A2981 RMK AO2 VIS 3/4V5
K5SM 242035Z AUTO 24012G22KT 200V260 1 3/4SM BR SCT002 SCT019 BKN026 M15/M17 A2982 RMK AO2 VIS 1V5
K5SM 242029Z AUTO 24011G23KT 200V270 3/4SM -SN SCT002 SCT011 BKN019 M15/M17 A2982 RMK AO2
K5SM 242012Z AUTO 23010G18KT 180V250 5SM BR SCT003 SCT006 BKN018 M15/M16 A2981 RMK AO2
K5SM 241954Z AUTO 23009G22KT 100V290 2SM -SN SCT002 BKN005 OVC011 M15/M17 A2979 RMK AO2 VIS 1V4
K5SM 241930Z AUTO 23009G24KT 1 1/2SM -SN SCT002 BKN009 OVC012 M15/M17 A2981 RMK AO2
K5SM 241912Z AUTO 24012G21KT 1 1/4SM -SN SCT001 BKN007 OVC012 M15/M17 A2979 RMK AO2
K5SM 241854Z AUTO 24009G24KT 160V300 1 1/2SM -SN BKN009 OVC016 A2985 RMK AO2
K5SM 241830Z AUTO 23013G22KT 210V270 1SM -SN BKN004 BKN010 OVC017 A2983 RMK AO2
K5SM 241812Z AUTO 22015G24KT 180V280 1/2SM -SN OVC004 A2985 RMK AO2
K5SM 241754Z AUTO 22010G19KT 1/4SM -SN OVC004 A2982 RMK AO2
K5SM 241730Z AUTO 24011G19KT 1/2SM -SN BKN004 OVC008 A2985 RMK AO2
K5SM 241712Z AUTO 23011G21KT 1/4SM SN OVC004 A2984 RMK AO2
K5SM 241654Z AUTO 24008G17KT 220V280 1/4SM SN OVC004 A2983 RMK AO2
K5SM 241630Z AUTO 24009G17KT 150V270 3/4SM -SN OVC002 A2982 RMK AO2
K5SM 241612Z AUTO 25007G15KT 200V290 3/4SM -SN OVC006 A2984 RMK AO2
K5SM 241554Z AUTO 22007G14KT 3/4SM -SN OVC006 A2980 RMK AO2
K5SM 241530Z AUTO 22006KT 3/4SM -SN OVC006 A2982 RMK AO2
K5SM 241512Z AUTO 23004KT 1/2SM -SN BKN002 OVC007 A2984 RMK AO2
K5SM 241454Z AUTO 24007KT 210V270 1/4SM SN OVC002 A2983 RMK AO2
K5SM 241430Z AUTO 25007KT 230V310 1/4SM SN OVC002 A2982 RMK AO2
K5SM 241412Z AUTO 24006KT 1/2SM SN OVC002 A2981 RMK AO2
K5SM 241354Z AUTO 25006KT 1/2SM SN OVC002 A2980 RMK AO2
K5SM 241330Z AUTO 27008KT 180V300 1/2SM SN OVC002 A2980 RMK AO2
K5SM 241312Z AUTO 24007KT 100V020 3/4SM SN OVC002 A2979 RMK AO2
K5SM 241252Z AUTO 26008G16KT 240V310 1SM -SN OVC002 A2978 RMK AO2
K5SM 241235Z AUTO 26008KT 220V290 3/4SM SN OVC002 A2978 RMK AO2
K5SM 241229Z AUTO 26007G16KT 3/4SM SN OVC002 A2978 RMK AO2
K5SM 241212Z AUTO 26008G19KT 3/4SM SN OVC002 A2977 RMK AO2
K5SM 241154Z AUTO 26010G17KT 140V280 1 1/4SM -SN OVC002 A2977 RMK AO2